PWSweather.com
Personal Weather Stations
Station Observations
KJ4AJP
Beautiful Downtown Gardner, Martin, TN 38237

Beautiful Downtown GardnerMartin, TN 38237

Lat: 36.358, Lon: -88.8994

Elevation: 384.3

Station Type: TP1080WC

http://weather.mambm.com/

High Low Average
Temperature 48.6°F9.2°C 39.6°F4.2°C 44.2°F6.8°C
Dew Point 48.3°F9.1°C 39.3°F4.1°C 44.0°F6.7°C
Winds 5.4 mph 8.7 kmh Calm Calm 2.0 mph E3.2 kmh E
Wind Gusts 11.4 mph18.3 kmh 1.6 mph2.6 kmh 5.0 mph8.0 kmh
Humidity 99% 99% 99%
Pressure 30.23 in1023.7 mb 30.09 in1019.0 mb -
Precipitation 0.01 in0.3 mm - -
Hour Temp Dew Point Humidity Winds Wind Gusts Pressure Precip Precip Rate Daily Precip Total
12:00 AM 40.3°F4.6°C 40.0°F4.4°C 99% 0.7 mph NNE1.1 kmh NNE 2.2 mph3.5 kmh 30.18 in1022.0 mb 0.00 in0.0 mm 0.00 in0.0 mm 0.00 in0.0 mm
12:15 AM 40.3°F4.6°C 40.0°F4.4°C 99% 0.7 mph N1.1 kmh N 3.1 mph5.0 kmh 30.18 in1022.0 mb 0.00 in0.0 mm 0.00 in0.0 mm 0.00 in0.0 mm
12:30 AM 40.3°F4.6°C 40.0°F4.4°C 99% Calm Calm 2.2 mph3.5 kmh 30.17 in1021.7 mb 0.00 in0.0 mm 0.00 in0.0 mm 0.00 in0.0 mm
12:45 AM 40.3°F4.6°C 40.0°F4.4°C 99% 1.6 mph N2.6 kmh N 2.2 mph3.5 kmh 30.17 in1021.7 mb 0.00 in0.0 mm 0.00 in0.0 mm 0.00 in0.0 mm
01:00 AM 40.1°F4.5°C 39.8°F4.3°C 99% Calm Calm 3.8 mph6.1 kmh 30.17 in1021.7 mb 0.00 in0.0 mm 0.00 in0.0 mm 0.00 in0.0 mm
01:15 AM 40.1°F4.5°C 39.8°F4.3°C 99% 0.7 mph N1.1 kmh N 3.1 mph5.0 kmh 30.18 in1022.0 mb 0.00 in0.0 mm 0.00 in0.0 mm 0.00 in0.0 mm
01:30 AM 40.1°F4.5°C 39.8°F4.3°C 99% 1.6 mph N2.6 kmh N 4.5 mph7.2 kmh 30.18 in1022.0 mb 0.00 in0.0 mm 0.00 in0.0 mm 0.00 in0.0 mm
01:45 AM 39.9°F4.4°C 39.7°F4.3°C 99% 1.6 mph NNE2.6 kmh NNE 3.1 mph5.0 kmh 30.18 in1022.0 mb 0.00 in0.0 mm 0.00 in0.0 mm 0.00 in0.0 mm
02:00 AM 40.1°F4.5°C 39.8°F4.3°C 99% 1.6 mph N2.6 kmh N 4.5 mph7.2 kmh 30.17 in1021.7 mb 0.00 in0.0 mm 0.00 in0.0 mm 0.00 in0.0 mm
02:15 AM 39.9°F4.4°C 39.7°F4.3°C 99% Calm Calm 3.1 mph5.0 kmh 30.17 in1021.7 mb 0.00 in0.0 mm 0.00 in0.0 mm 0.00 in0.0 mm
02:30 AM 40.1°F4.5°C 39.8°F4.3°C 99% 2.2 mph N3.5 kmh N 4.5 mph7.2 kmh 30.17 in1021.7 mb 0.00 in0.0 mm 0.00 in0.0 mm 0.00 in0.0 mm
02:45 AM 39.9°F4.4°C 39.7°F4.3°C 99% 1.6 mph N2.6 kmh N 6.0 mph9.7 kmh 30.18 in1022.0 mb 0.00 in0.0 mm 0.00 in0.0 mm 0.00 in0.0 mm
03:00 AM 39.9°F4.4°C 39.7°F4.3°C 99% 0.7 mph N1.1 kmh N 2.2 mph3.5 kmh 30.18 in1022.0 mb 0.00 in0.0 mm 0.00 in0.0 mm 0.00 in0.0 mm
03:15 AM 39.9°F4.4°C 39.7°F4.3°C 99% Calm Calm 2.2 mph3.5 kmh 30.18 in1022.0 mb 0.00 in0.0 mm 0.00 in0.0 mm 0.00 in0.0 mm
03:30 AM 39.9°F4.4°C 39.7°F4.3°C 99% 0.7 mph NE1.1 kmh NE 3.1 mph5.0 kmh 30.18 in1022.0 mb 0.00 in0.0 mm 0.00 in0.0 mm 0.00 in0.0 mm
03:45 AM 39.7°F4.3°C 39.5°F4.2°C 99% Calm Calm 2.2 mph3.5 kmh 30.19 in1022.4 mb 0.00 in0.0 mm 0.00 in0.0 mm 0.00 in0.0 mm
04:00 AM 39.7°F4.3°C 39.5°F4.2°C 99% Calm Calm 1.6 mph2.6 kmh 30.18 in1022.0 mb 0.00 in0.0 mm 0.00 in0.0 mm 0.00 in0.0 mm
04:15 AM 39.7°F4.3°C 39.5°F4.2°C 99% 1.6 mph N2.6 kmh N 3.1 mph5.0 kmh 30.19 in1022.4 mb 0.01 in0.3 mm 0.04 in1.0 mm 0.01 in0.3 mm
04:30 AM 39.6°F4.2°C 39.3°F4.1°C 99% 1.6 mph N2.6 kmh N 3.8 mph6.1 kmh 30.19 in1022.4 mb 0.01 in0.3 mm 0.00 in0.0 mm 0.01 in0.3 mm
04:45 AM 39.6°F4.2°C 39.3°F4.1°C 99% 0.7 mph N1.1 kmh N 3.8 mph6.1 kmh 30.18 in1022.0 mb 0.01 in0.3 mm 0.00 in0.0 mm 0.01 in0.3 mm
05:00 AM 39.6°F4.2°C 39.3°F4.1°C 99% 0.7 mph N1.1 kmh N 3.8 mph6.1 kmh 30.19 in1022.4 mb 0.01 in0.3 mm 0.00 in0.0 mm 0.01 in0.3 mm
05:15 AM 39.6°F4.2°C 39.3°F4.1°C 99% 2.2 mph N3.5 kmh N 4.5 mph7.2 kmh 30.19 in1022.4 mb 0.00 in0.0 mm 0.00 in0.0 mm 0.01 in0.3 mm
05:30 AM 39.6°F4.2°C 39.3°F4.1°C 99% 2.2 mph N3.5 kmh N 5.4 mph8.7 kmh 30.20 in1022.7 mb 0.00 in0.0 mm 0.00 in0.0 mm 0.01 in0.3 mm
05:45 AM 39.6°F4.2°C 39.3°F4.1°C 99% 1.6 mph N2.6 kmh N 3.8 mph6.1 kmh 30.20 in1022.7 mb 0.00 in0.0 mm 0.00 in0.0 mm 0.01 in0.3 mm
06:00 AM 39.6°F4.2°C 39.3°F4.1°C 99% 0.7 mph N1.1 kmh N 4.5 mph7.2 kmh 30.20 in1022.7 mb 0.00 in0.0 mm 0.00 in0.0 mm 0.01 in0.3 mm
06:15 AM 39.6°F4.2°C 39.3°F4.1°C 99% 0.7 mph NNE1.1 kmh NNE 6.0 mph9.7 kmh 30.19 in1022.4 mb 0.00 in0.0 mm 0.00 in0.0 mm 0.01 in0.3 mm
06:30 AM 39.6°F4.2°C 39.3°F4.1°C 99% 0.7 mph NNE1.1 kmh NNE 5.4 mph8.7 kmh 30.19 in1022.4 mb 0.00 in0.0 mm 0.00 in0.0 mm 0.01 in0.3 mm
06:45 AM 39.6°F4.2°C 39.3°F4.1°C 99% 1.6 mph NNE2.6 kmh NNE 3.8 mph6.1 kmh 30.20 in1022.7 mb 0.00 in0.0 mm 0.00 in0.0 mm 0.01 in0.3 mm
07:00 AM 39.7°F4.3°C 39.5°F4.2°C 99% Calm Calm 5.4 mph8.7 kmh 30.21 in1023.0 mb 0.00 in0.0 mm 0.00 in0.0 mm 0.01 in0.3 mm
07:15 AM 39.7°F4.3°C 39.5°F4.2°C 99% 0.7 mph NNE1.1 kmh NNE 3.8 mph6.1 kmh 30.22 in1023.4 mb 0.00 in0.0 mm 0.00 in0.0 mm 0.01 in0.3 mm
07:30 AM 39.6°F4.2°C 39.3°F4.1°C 99% 1.6 mph NE2.6 kmh NE 5.4 mph8.7 kmh 30.22 in1023.4 mb 0.00 in0.0 mm 0.00 in0.0 mm 0.01 in0.3 mm
07:45 AM 39.7°F4.3°C 39.5°F4.2°C 99% 1.6 mph NE2.6 kmh NE 6.0 mph9.7 kmh 30.22 in1023.4 mb 0.00 in0.0 mm 0.00 in0.0 mm 0.01 in0.3 mm
08:00 AM 39.7°F4.3°C 39.5°F4.2°C 99% 2.2 mph NNE3.5 kmh NNE 5.4 mph8.7 kmh 30.23 in1023.7 mb 0.00 in0.0 mm 0.00 in0.0 mm 0.01 in0.3 mm
08:15 AM 40.1°F4.5°C 39.8°F4.3°C 99% 2.2 mph NE3.5 kmh NE 7.6 mph12.2 kmh 30.22 in1023.4 mb 0.00 in0.0 mm 0.00 in0.0 mm 0.01 in0.3 mm
08:30 AM 40.1°F4.5°C 39.8°F4.3°C 99% 3.1 mph NE5.0 kmh NE 9.2 mph14.8 kmh 30.23 in1023.7 mb 0.00 in0.0 mm 0.00 in0.0 mm 0.01 in0.3 mm
08:45 AM 40.5°F4.7°C 40.2°F4.6°C 99% 3.1 mph NE5.0 kmh NE 5.4 mph8.7 kmh 30.22 in1023.4 mb 0.00 in0.0 mm 0.00 in0.0 mm 0.01 in0.3 mm
09:00 AM 40.8°F4.9°C 40.6°F4.8°C 99% 3.8 mph ENE6.1 kmh ENE 7.6 mph12.2 kmh 30.22 in1023.4 mb 0.00 in0.0 mm 0.00 in0.0 mm 0.01 in0.3 mm
09:15 AM 41.2°F5.1°C 40.9°F4.9°C 99% 0.7 mph ENE1.1 kmh ENE 8.3 mph13.4 kmh 30.23 in1023.7 mb 0.00 in0.0 mm 0.00 in0.0 mm 0.01 in0.3 mm
09:30 AM 41.5°F5.3°C 41.3°F5.2°C 99% 2.2 mph E3.5 kmh E 6.9 mph11.1 kmh 30.23 in1023.7 mb 0.00 in0.0 mm 0.00 in0.0 mm 0.01 in0.3 mm
09:45 AM 42.1°F5.6°C 41.8°F5.4°C 99% 2.2 mph ENE3.5 kmh ENE 6.0 mph9.7 kmh 30.23 in1023.7 mb 0.00 in0.0 mm 0.00 in0.0 mm 0.01 in0.3 mm
10:00 AM 43.0°F6.1°C 42.7°F5.9°C 99% 2.2 mph ENE3.5 kmh ENE 7.6 mph12.2 kmh 30.22 in1023.4 mb 0.00 in0.0 mm 0.00 in0.0 mm 0.01 in0.3 mm
10:15 AM 43.7°F6.5°C 43.4°F6.3°C 99% 2.2 mph E3.5 kmh E 9.2 mph14.8 kmh 30.23 in1023.7 mb 0.00 in0.0 mm 0.00 in0.0 mm 0.01 in0.3 mm
10:30 AM 44.4°F6.9°C 44.2°F6.8°C 99% 5.4 mph E8.7 kmh E 11.4 mph18.3 kmh 30.22 in1023.4 mb 0.00 in0.0 mm 0.00 in0.0 mm 0.01 in0.3 mm
10:45 AM 45.3°F7.4°C 45.1°F7.3°C 99% 3.1 mph E5.0 kmh E 7.6 mph12.2 kmh 30.21 in1023.0 mb 0.00 in0.0 mm 0.00 in0.0 mm 0.01 in0.3 mm
11:00 AM 46.4°F8.0°C 46.1°F7.8°C 99% 3.1 mph ENE5.0 kmh ENE 7.6 mph12.2 kmh 30.21 in1023.0 mb 0.00 in0.0 mm 0.00 in0.0 mm 0.01 in0.3 mm
11:15 AM 46.8°F8.2°C 46.5°F8.1°C 99% 1.6 mph E2.6 kmh E 6.0 mph9.7 kmh 30.21 in1023.0 mb 0.00 in0.0 mm 0.00 in0.0 mm 0.01 in0.3 mm
11:30 AM 47.1°F8.4°C 46.9°F8.3°C 99% 3.8 mph E6.1 kmh E 7.6 mph12.2 kmh 30.19 in1022.4 mb 0.00 in0.0 mm 0.00 in0.0 mm 0.01 in0.3 mm
11:45 AM 47.5°F8.6°C 47.2°F8.4°C 99% 3.1 mph E5.0 kmh E 6.0 mph9.7 kmh 30.18 in1022.0 mb 0.00 in0.0 mm 0.00 in0.0 mm 0.01 in0.3 mm
12:00 PM 47.7°F8.7°C 47.4°F8.6°C 99% 4.5 mph ENE7.2 kmh ENE 8.3 mph13.4 kmh 30.17 in1021.7 mb 0.00 in0.0 mm 0.00 in0.0 mm 0.01 in0.3 mm
12:15 PM 48.0°F8.9°C 47.8°F8.8°C 99% 3.1 mph E5.0 kmh E 8.3 mph13.4 kmh 30.16 in1021.3 mb 0.00 in0.0 mm 0.00 in0.0 mm 0.01 in0.3 mm
12:30 PM 48.4°F9.1°C 48.1°F8.9°C 99% 3.1 mph E5.0 kmh E 6.0 mph9.7 kmh 30.17 in1021.7 mb 0.00 in0.0 mm 0.00 in0.0 mm 0.01 in0.3 mm
12:45 PM 48.6°F9.2°C 48.3°F9.1°C 99% 0.7 mph ENE1.1 kmh ENE 4.5 mph7.2 kmh 30.16 in1021.3 mb 0.00 in0.0 mm 0.00 in0.0 mm 0.01 in0.3 mm
01:00 PM 48.6°F9.2°C 48.3°F9.1°C 99% 0.7 mph E1.1 kmh E 4.5 mph7.2 kmh 30.16 in1021.3 mb 0.00 in0.0 mm 0.00 in0.0 mm 0.01 in0.3 mm
01:15 PM 48.4°F9.1°C 48.1°F8.9°C 99% 3.1 mph E5.0 kmh E 4.5 mph7.2 kmh 30.14 in1020.7 mb 0.00 in0.0 mm 0.00 in0.0 mm 0.01 in0.3 mm
01:30 PM 48.6°F9.2°C 48.3°F9.1°C 99% 2.2 mph ENE3.5 kmh ENE 5.4 mph8.7 kmh 30.13 in1020.3 mb 0.00 in0.0 mm 0.00 in0.0 mm 0.01 in0.3 mm
01:45 PM 48.6°F9.2°C 48.3°F9.1°C 99% 2.2 mph NE3.5 kmh NE 5.4 mph8.7 kmh 30.13 in1020.3 mb 0.00 in0.0 mm 0.00 in0.0 mm 0.01 in0.3 mm
02:00 PM 48.6°F9.2°C 48.3°F9.1°C 99% 0.7 mph NE1.1 kmh NE 3.1 mph5.0 kmh 30.13 in1020.3 mb 0.00 in0.0 mm 0.00 in0.0 mm 0.01 in0.3 mm
02:15 PM 48.6°F9.2°C 48.3°F9.1°C 99% 1.6 mph NE2.6 kmh NE 4.5 mph7.2 kmh 30.13 in1020.3 mb 0.00 in0.0 mm 0.00 in0.0 mm 0.01 in0.3 mm
02:30 PM 48.4°F9.1°C 48.1°F8.9°C 99% 0.7 mph NE1.1 kmh NE 5.4 mph8.7 kmh 30.13 in1020.3 mb 0.00 in0.0 mm 0.00 in0.0 mm 0.01 in0.3 mm
02:45 PM 48.4°F9.1°C 48.1°F8.9°C 99% Calm Calm 5.4 mph8.7 kmh 30.13 in1020.3 mb 0.00 in0.0 mm 0.00 in0.0 mm 0.01 in0.3 mm
03:00 PM 48.2°F9.0°C 47.9°F8.8°C 99% Calm Calm 4.5 mph7.2 kmh 30.13 in1020.3 mb 0.00 in0.0 mm 0.00 in0.0 mm 0.01 in0.3 mm
03:15 PM 48.2°F9.0°C 47.9°F8.8°C 99% 0.7 mph NE1.1 kmh NE 3.1 mph5.0 kmh 30.13 in1020.3 mb 0.00 in0.0 mm 0.00 in0.0 mm 0.01 in0.3 mm
03:30 PM 48.2°F9.0°C 47.9°F8.8°C 99% 1.6 mph E2.6 kmh E 3.8 mph6.1 kmh 30.13 in1020.3 mb 0.00 in0.0 mm 0.00 in0.0 mm 0.01 in0.3 mm
03:45 PM 48.0°F8.9°C 47.8°F8.8°C 99% 1.6 mph E2.6 kmh E 5.4 mph8.7 kmh 30.13 in1020.3 mb 0.00 in0.0 mm 0.00 in0.0 mm 0.01 in0.3 mm
04:00 PM 47.8°F8.8°C 47.6°F8.7°C 99% 1.6 mph E2.6 kmh E 5.4 mph8.7 kmh 30.13 in1020.3 mb 0.00 in0.0 mm 0.00 in0.0 mm 0.01 in0.3 mm
04:15 PM 47.5°F8.6°C 47.2°F8.4°C 99% 1.6 mph E2.6 kmh E 5.4 mph8.7 kmh 30.12 in1020.0 mb 0.00 in0.0 mm 0.00 in0.0 mm 0.01 in0.3 mm
04:30 PM 47.5°F8.6°C 47.2°F8.4°C 99% Calm Calm 3.8 mph6.1 kmh 30.13 in1020.3 mb 0.00 in0.0 mm 0.00 in0.0 mm 0.01 in0.3 mm
04:45 PM 47.3°F8.5°C 47.0°F8.3°C 99% 2.2 mph E3.5 kmh E 4.5 mph7.2 kmh 30.12 in1020.0 mb 0.00 in0.0 mm 0.00 in0.0 mm 0.01 in0.3 mm
05:00 PM 46.9°F8.3°C 46.7°F8.2°C 99% Calm Calm 4.5 mph7.2 kmh 30.13 in1020.3 mb 0.00 in0.0 mm 0.00 in0.0 mm 0.01 in0.3 mm
05:15 PM 46.8°F8.2°C 46.5°F8.1°C 99% 2.2 mph E3.5 kmh E 3.8 mph6.1 kmh 30.11 in1019.6 mb 0.00 in0.0 mm 0.00 in0.0 mm 0.01 in0.3 mm
05:30 PM 46.6°F8.1°C 46.3°F7.9°C 99% 1.6 mph NE2.6 kmh NE 3.8 mph6.1 kmh 30.12 in1020.0 mb 0.00 in0.0 mm 0.00 in0.0 mm 0.01 in0.3 mm
05:45 PM 46.4°F8.0°C 46.1°F7.8°C 99% 0.7 mph NE1.1 kmh NE 3.8 mph6.1 kmh 30.12 in1020.0 mb 0.00 in0.0 mm 0.00 in0.0 mm 0.01 in0.3 mm
06:00 PM 46.2°F7.9°C 46.0°F7.8°C 99% Calm Calm 3.1 mph5.0 kmh 30.12 in1020.0 mb 0.00 in0.0 mm 0.00 in0.0 mm 0.01 in0.3 mm
06:15 PM 46.0°F7.8°C 45.8°F7.7°C 99% 0.7 mph E1.1 kmh E 3.1 mph5.0 kmh 30.12 in1020.0 mb 0.00 in0.0 mm 0.00 in0.0 mm 0.01 in0.3 mm
06:30 PM 45.9°F7.7°C 45.6°F7.6°C 99% 1.6 mph ENE2.6 kmh ENE 3.8 mph6.1 kmh 30.12 in1020.0 mb 0.00 in0.0 mm 0.00 in0.0 mm 0.01 in0.3 mm
06:45 PM 45.9°F7.7°C 45.6°F7.6°C 99% 0.7 mph NE1.1 kmh NE 3.1 mph5.0 kmh 30.12 in1020.0 mb 0.00 in0.0 mm 0.00 in0.0 mm 0.01 in0.3 mm
07:00 PM 45.9°F7.7°C 45.6°F7.6°C 99% 0.7 mph ENE1.1 kmh ENE 2.2 mph3.5 kmh 30.12 in1020.0 mb 0.00 in0.0 mm 0.00 in0.0 mm 0.01 in0.3 mm
07:15 PM 45.9°F7.7°C 45.6°F7.6°C 99% 0.7 mph E1.1 kmh E 3.1 mph5.0 kmh 30.12 in1020.0 mb 0.00 in0.0 mm 0.00 in0.0 mm 0.01 in0.3 mm
07:30 PM 45.7°F7.6°C 45.4°F7.4°C 99% 0.7 mph E1.1 kmh E 2.2 mph3.5 kmh 30.12 in1020.0 mb 0.00 in0.0 mm 0.00 in0.0 mm 0.01 in0.3 mm
07:45 PM 45.9°F7.7°C 45.6°F7.6°C 99% 3.1 mph SE5.0 kmh SE 6.9 mph11.1 kmh 30.10 in1019.3 mb 0.00 in0.0 mm 0.00 in0.0 mm 0.01 in0.3 mm
08:00 PM 46.0°F7.8°C 45.8°F7.7°C 99% 1.6 mph E2.6 kmh E 7.6 mph12.2 kmh 30.10 in1019.3 mb 0.00 in0.0 mm 0.00 in0.0 mm 0.01 in0.3 mm
08:15 PM 46.4°F8.0°C 46.1°F7.8°C 99% 1.6 mph SE2.6 kmh SE 7.6 mph12.2 kmh 30.11 in1019.6 mb 0.00 in0.0 mm 0.00 in0.0 mm 0.01 in0.3 mm
08:30 PM 46.8°F8.2°C 46.5°F8.1°C 99% 3.8 mph ESE6.1 kmh ESE 6.0 mph9.7 kmh 30.10 in1019.3 mb 0.00 in0.0 mm 0.00 in0.0 mm 0.01 in0.3 mm
08:45 PM 46.9°F8.3°C 46.7°F8.2°C 99% 3.1 mph E5.0 kmh E 5.4 mph8.7 kmh 30.10 in1019.3 mb 0.00 in0.0 mm 0.00 in0.0 mm 0.01 in0.3 mm
09:00 PM 47.1°F8.4°C 46.9°F8.3°C 99% 1.6 mph ESE2.6 kmh ESE 5.4 mph8.7 kmh 30.11 in1019.6 mb 0.00 in0.0 mm 0.00 in0.0 mm 0.01 in0.3 mm
09:15 PM 47.3°F8.5°C 47.0°F8.3°C 99% 0.7 mph SE1.1 kmh SE 5.4 mph8.7 kmh 30.10 in1019.3 mb 0.00 in0.0 mm 0.00 in0.0 mm 0.01 in0.3 mm
09:30 PM 47.5°F8.6°C 47.2°F8.4°C 99% 3.1 mph SE5.0 kmh SE 5.4 mph8.7 kmh 30.10 in1019.3 mb 0.00 in0.0 mm 0.00 in0.0 mm 0.01 in0.3 mm
09:45 PM 47.7°F8.7°C 47.4°F8.6°C 99% 0.7 mph SE1.1 kmh SE 5.4 mph8.7 kmh 30.10 in1019.3 mb 0.00 in0.0 mm 0.00 in0.0 mm 0.01 in0.3 mm
10:00 PM 47.8°F8.8°C 47.6°F8.7°C 99% 0.7 mph E1.1 kmh E 6.0 mph9.7 kmh 30.09 in1019.0 mb 0.00 in0.0 mm 0.00 in0.0 mm 0.01 in0.3 mm
10:15 PM 47.8°F8.8°C 47.6°F8.7°C 99% 2.2 mph ESE3.5 kmh ESE 6.0 mph9.7 kmh 30.10 in1019.3 mb 0.00 in0.0 mm 0.00 in0.0 mm 0.01 in0.3 mm
10:30 PM 48.0°F8.9°C 47.8°F8.8°C 99% 1.6 mph SE2.6 kmh SE 6.0 mph9.7 kmh 30.09 in1019.0 mb 0.00 in0.0 mm 0.00 in0.0 mm 0.01 in0.3 mm
10:45 PM 48.0°F8.9°C 47.8°F8.8°C 99% 3.1 mph SE5.0 kmh SE 4.5 mph7.2 kmh 30.09 in1019.0 mb 0.00 in0.0 mm 0.00 in0.0 mm 0.01 in0.3 mm
11:00 PM 48.0°F8.9°C 47.8°F8.8°C 99% 2.2 mph E3.5 kmh E 3.8 mph6.1 kmh 30.09 in1019.0 mb 0.00 in0.0 mm 0.00 in0.0 mm 0.01 in0.3 mm
11:15 PM 48.0°F8.9°C 47.8°F8.8°C 99% 0.7 mph E1.1 kmh E 3.8 mph6.1 kmh 30.09 in1019.0 mb 0.00 in0.0 mm 0.00 in0.0 mm 0.01 in0.3 mm
11:30 PM 48.2°F9.0°C 47.9°F8.8°C 99% 1.6 mph SE2.6 kmh SE 3.8 mph6.1 kmh 30.10 in1019.3 mb 0.00 in0.0 mm 0.00 in0.0 mm 0.01 in0.3 mm
11:45 PM 48.2°F9.0°C 47.9°F8.8°C 99% 0.7 mph SE1.1 kmh SE 4.5 mph7.2 kmh 30.10 in1019.3 mb 0.00 in0.0 mm 0.00 in0.0 mm 0.01 in0.3 mm